Preview of NWS' New Version of Forecast
This preview is not operational and should not be used for support decisions.

Terminal Aerodrome Forecast (TAF)

Issued by National Weather Service (NWS)

                            
850 
FTUS42 KMFL 210231 AAA
TAFMIA
TAF AMD
KMIA 210231Z 2103/2206 10012KT P6SM BKN022 BKN045
     FM211400 10015KT P6SM SCT025 BKN040
     FM220000 09010KT P6SM FEW020 SCT040=